Paradox Lake, New York
Current Conditions -  °F | °C
As of 12:15 AM on Tuesday 21 Oct 2014 (Local Time) from K6B0 Reporting Station
Overcast Overcast  
Wind Chill: 49°   Ceiling: 7000
Heat Index: 49°   Visibility: 10mi
Dew Point: 37°   Wind: 0mph
Humidity: 63%   Direction: NA
Pressure: 29.93"   Gusts: NA
Location:  43.8893°N, 73.6378°W
Report Text: K6B0 210415Z AUTO 00000KT 10SM SCT055 OVC070 10/03 A2993 RMK AO2 T00960029
Loading
Personal Weather Stations






























Interactive Weather Map
Tropical Storm Tracking
New forecast layout! Learn more

10-Day Weather Forecast

Advertisements
Track Severe Weather on mobile